Time;durP1;ratioP1;P1;durP2;ratioP2;P2;SDS_P1;SDS_P2;PMS_P1;PMS_P2;Temp;Humidity;BMP_temperature;BMP_pressure;BME280_temperature;BME280_humidity;BME280_pressure;Samples;Min_cycle;Max_cycle;Signal;HPM_P1;HPM_P2
2021/06/10 00:00:53;;;;;;;2.25;1.58;;;;;15.10;100836.00;;;;5029425;28;20025;-71
2021/06/10 00:03:19;;;;;;;3.83;1.20;;;;;15.20;100843.00;;;;5028930;28;20049;-74
2021/06/10 00:05:47;;;;;;;5.35;1.05;;;;;15.10;100844.00;;;;5028403;28;20040;-72
2021/06/10 00:08:14;;;;;;;5.57;0.80;;;;;15.10;100837.00;;;;5029138;28;20041;-70
2021/06/10 00:10:42;;;;;;;5.82;0.80;;;;;15.10;100844.00;;;;5028868;28;20184;-72
2021/06/10 00:13:10;;;;;;;2.28;0.90;;;;;15.00;100839.00;;;;5029175;28;20060;-72
2021/06/10 00:15:37;;;;;;;1.85;0.93;;;;;15.00;100835.00;;;;5028995;28;20029;-70
2021/06/10 00:18:05;;;;;;;3.55;1.33;;;;;15.10;100825.00;;;;5028846;28;20034;-69
2021/06/10 00:20:35;;;;;;;4.78;1.17;;;;;15.00;100826.00;;;;5029333;28;20025;-71
2021/06/10 00:23:04;;;;;;;2.05;0.93;;;;;14.90;100825.00;;;;5029169;28;20022;-72
2021/06/10 00:25:31;;;;;;;3.55;1.30;;;;;15.10;100825.00;;;;5029626;28;20066;-73
2021/06/10 00:27:59;;;;;;;2.50;0.90;;;;;15.20;100826.00;;;;5028811;28;20037;-72
2021/06/10 00:30:27;;;;;;;3.97;0.77;;;;;15.10;100813.00;;;;5028660;28;20183;-72
2021/06/10 00:32:54;;;;;;;3.20;0.98;;;;;15.10;100819.00;;;;5028673;28;20496;-71
2021/06/10 00:35:23;;;;;;;9.50;1.20;;;;;15.10;100810.00;;;;5028747;28;20408;-73
2021/06/10 00:37:51;;;;;;;4.03;0.80;;;;;15.10;100805.00;;;;5028692;28;20040;-72
2021/06/10 00:40:17;;;;;;;3.13;0.80;;;;;15.10;100784.00;;;;5028647;28;20034;-75
2021/06/10 00:42:45;;;;;;;2.10;0.82;;;;;15.10;100779.00;;;;5027821;28;20503;-74
2021/06/10 00:45:14;;;;;;;1.27;0.65;;;;;15.00;100795.00;;;;5026112;28;20076;-71
2021/06/10 00:47:42;;;;;;;7.32;0.90;;;;;15.00;100798.00;;;;5028415;28;20064;-72
2021/06/10 00:50:10;;;;;;;3.40;0.70;;;;;15.10;100797.00;;;;5028307;28;20105;-74
2021/06/10 00:52:36;;;;;;;1.67;0.80;;;;;15.10;100790.00;;;;5027319;28;20053;-74
2021/06/10 00:55:04;;;;;;;3.15;1.15;;;;;15.00;100798.00;;;;5028492;28;20053;-71
2021/06/10 00:57:31;;;;;;;4.05;1.15;;;;;15.00;100796.00;;;;5027973;28;20440;-69
2021/06/10 00:59:57;;;;;;;3.50;1.13;;;;;14.90;100792.00;;;;5027574;28;20133;-69
2021/06/10 01:02:24;;;;;;;2.15;0.95;;;;;15.00;100799.00;;;;5028473;28;20505;-71
2021/06/10 01:04:50;;;;;;;3.00;0.80;;;;;14.90;100790.00;;;;5028378;28;20079;-70
2021/06/10 01:07:30;;;;;;;1.80;0.90;;;;;15.00;100792.00;;;;5028604;28;20025;-72
2021/06/10 01:10:16;;;;;;;2.67;1.13;;;;;15.00;100793.00;;;;5027980;28;20053;-72
2021/06/10 01:12:52;;;;;;;3.63;0.80;;;;;15.00;100789.00;;;;5028084;28;20465;-73
2021/06/10 01:15:21;;;;;;;2.15;0.80;;;;;15.00;100779.00;;;;5027634;28;20037;-72
2021/06/10 01:17:48;;;;;;;3.15;1.42;;;;;15.00;100784.00;;;;5028054;28;20064;-68
2021/06/10 01:20:21;;;;;;;1.40;0.43;;;;;15.10;100792.00;;;;5028345;28;20049;-69
2021/06/10 01:22:57;;;;;;;4.07;0.63;;;;;15.00;100787.00;;;;5027765;28;20052;-69
2021/06/10 01:25:58;;;;;;;3.13;0.50;;;;;14.90;100796.00;;;;5027415;28;20468;-71
2021/06/10 01:28:35;;;;;;;4.97;0.65;;;;;14.90;100783.00;;;;5027840;28;20033;-69
2021/06/10 01:31:06;;;;;;;1.38;0.30;;;;;14.90;100801.00;;;;5027995;28;20029;-68
2021/06/10 01:33:39;;;;;;;2.10;0.65;;;;;15.50;100783.00;;;;5027710;28;20029;-71
2021/06/10 01:36:40;;;;;;;8.90;0.68;;;;;15.60;100777.00;;;;5028257;28;20095;-68
2021/06/10 01:39:10;;;;;;;4.00;0.60;;;;;15.40;100776.00;;;;5025443;28;20053;-72
2021/06/10 01:41:39;;;;;;;2.15;0.80;;;;;15.20;100784.00;;;;5027654;28;20103;-71
2021/06/10 01:44:07;;;;;;;2.03;0.50;;;;;15.10;100782.00;;;;5027630;28;20069;-74
2021/06/10 01:46:35;;;;;;;2.28;0.85;;;;;15.00;100785.00;;;;5027499;28;20030;-72
2021/06/10 01:49:04;;;;;;;6.55;0.55;;;;;14.90;100786.00;;;;5027505;28;20079;-70
2021/06/10 01:51:32;;;;;;;5.90;0.70;;;;;14.80;100765.00;;;;5027925;28;20041;-69
2021/06/10 01:54:02;;;;;;;1.20;0.40;;;;;14.70;100773.00;;;;5027930;28;20493;-73
2021/06/10 01:56:30;;;;;;;1.58;0.50;;;;;14.60;100777.00;;;;5027580;28;20036;-73
2021/06/10 01:58:59;;;;;;;3.58;0.82;;;;;14.50;100778.00;;;;5027232;28;20126;-73
2021/06/10 02:01:29;;;;;;;4.00;0.50;;;;;14.40;100752.00;;;;5027317;28;20062;-72
2021/06/10 02:03:57;;;;;;;7.18;0.73;;;;;14.30;100767.00;;;;5027444;28;20393;-74
2021/06/10 02:06:25;;;;;;;5.55;0.73;;;;;14.30;100762.00;;;;5027143;28;20057;-74
2021/06/10 02:08:52;;;;;;;3.38;0.50;;;;;14.30;100757.00;;;;5026891;28;20484;-72
2021/06/10 02:11:20;;;;;;;3.03;0.50;;;;;14.20;100765.00;;;;5027089;28;20088;-73
2021/06/10 02:13:49;;;;;;;4.07;0.60;;;;;14.20;100766.00;;;;5027444;28;20033;-72
2021/06/10 02:16:17;;;;;;;3.67;0.73;;;;;14.20;100763.00;;;;5027583;28;20030;-70
2021/06/10 02:18:47;;;;;;;2.20;0.90;;;;;14.20;100763.00;;;;5027077;28;20381;-73
2021/06/10 02:21:15;;;;;;;3.95;0.70;;;;;14.10;100766.00;;;;5026638;28;20519;-74
2021/06/10 02:23:43;;;;;;;3.30;0.82;;;;;14.10;100774.00;;;;5026363;28;20090;-70
2021/06/10 02:26:10;;;;;;;4.10;0.80;;;;;14.00;100776.00;;;;5026843;28;20090;-69
2021/06/10 02:28:38;;;;;;;2.95;0.60;;;;;14.00;100772.00;;;;5026546;28;20036;-71
2021/06/10 02:31:08;;;;;;;3.85;0.88;;;;;14.00;100758.00;;;;5026638;28;20041;-73
2021/06/10 02:33:37;;;;;;;2.70;1.38;;;;;14.00;100770.00;;;;5026654;28;20029;-72
2021/06/10 02:36:07;;;;;;;3.83;2.38;;;;;13.90;100760.00;;;;5026529;28;20479;-73
2021/06/10 02:38:34;;;;;;;2.45;1.95;;;;;14.00;100760.00;;;;5027334;28;20117;-70
2021/06/10 02:41:03;;;;;;;2.92;1.70;;;;;14.00;100750.00;;;;5027240;28;20547;-71
2021/06/10 02:43:33;;;;;;;4.70;1.77;;;;;14.00;100745.00;;;;5026684;28;20528;-71
2021/06/10 02:46:04;;;;;;;6.50;1.70;;;;;14.00;100753.00;;;;5026502;28;20026;-71
2021/06/10 02:48:31;;;;;;;4.18;1.20;;;;;13.90;100757.00;;;;5026689;28;20086;-72
2021/06/10 02:50:59;;;;;;;3.45;0.80;;;;;13.90;100762.00;;;;5026596;28;20025;-72
2021/06/10 02:53:29;;;;;;;1.48;0.70;;;;;13.80;100765.00;;;;5026765;28;20040;-73
2021/06/10 02:55:59;;;;;;;4.13;0.80;;;;;13.70;100769.00;;;;5026804;28;20029;-74
2021/06/10 02:58:26;;;;;;;4.70;1.70;;;;;13.60;100777.00;;;;5027216;28;20048;-68
2021/06/10 03:00:53;;;;;;;10.63;2.08;;;;;13.60;100775.00;;;;5026391;28;20072;-71
2021/06/10 03:03:21;;;;;;;6.78;1.80;;;;;13.60;100778.00;;;;5026974;28;20531;-72
2021/06/10 03:05:49;;;;;;;7.85;1.50;;;;;13.50;100785.00;;;;5025864;28;20081;-69
2021/06/10 03:08:18;;;;;;;3.30;1.70;;;;;13.50;100775.00;;;;5026591;28;20587;-71
2021/06/10 03:10:46;;;;;;;1.50;0.68;;;;;13.40;100759.00;;;;5025877;28;20048;-74
2021/06/10 03:13:16;;;;;;;3.97;0.77;;;;;13.40;100762.00;;;;5026535;28;20033;-72
2021/06/10 03:15:44;;;;;;;2.95;1.08;;;;;13.40;100757.00;;;;5026453;28;20034;-71
2021/06/10 03:18:13;;;;;;;3.22;1.02;;;;;13.40;100753.00;;;;5025788;28;20541;-71
2021/06/10 03:20:40;;;;;;;5.75;0.90;;;;;13.40;100759.00;;;;5026816;28;20034;-71
2021/06/10 03:23:07;;;;;;;2.10;0.80;;;;;13.40;100751.00;;;;5027164;28;20021;-73
2021/06/10 03:25:34;;;;;;;2.70;1.00;;;;;13.30;100755.00;;;;5026787;28;20113;-72
2021/06/10 03:28:04;;;;;;;5.38;0.90;;;;;13.30;100761.00;;;;5026559;28;20030;-70
2021/06/10 03:30:31;;;;;;;6.90;1.08;;;;;13.30;100755.00;;;;5025861;28;20036;-70
2021/06/10 03:32:57;;;;;;;1.60;0.77;;;;;13.20;100754.00;;;;5027078;28;20072;-71
2021/06/10 03:35:25;;;;;;;6.70;0.77;;;;;13.20;100756.00;;;;5030531;28;20108;-70
2021/06/10 03:37:52;;;;;;;3.25;1.00;;;;;13.10;100748.00;;;;5030155;28;20044;-68
2021/06/10 03:40:19;;;;;;;7.80;0.80;;;;;13.10;100743.00;;;;5029766;28;20061;-71
2021/06/10 03:42:47;;;;;;;3.05;0.70;;;;;13.20;100746.00;;;;5030090;28;20061;-70
2021/06/10 03:45:14;;;;;;;3.53;0.63;;;;;13.10;100747.00;;;;5029330;28;20087;-71
2021/06/10 03:47:44;;;;;;;1.35;0.57;;;;;13.00;100738.00;;;;5030119;28;20037;-72
2021/06/10 03:50:12;;;;;;;2.03;0.80;;;;;13.00;100741.00;;;;5029808;28;20033;-75
2021/06/10 03:52:39;;;;;;;1.92;0.88;;;;;13.00;100743.00;;;;5029719;28;20091;-71
2021/06/10 03:55:08;;;;;;;1.90;0.60;;;;;13.10;100743.00;;;;5029035;28;20022;-70
2021/06/10 03:57:36;;;;;;;5.60;0.65;;;;;13.00;100745.00;;;;5026597;28;20120;-73
2021/06/10 04:00:06;;;;;;;3.42;1.00;;;;;13.10;100738.00;;;;5029484;28;20021;-71
2021/06/10 04:02:32;;;;;;;4.20;0.60;;;;;13.00;100750.00;;;;5029323;28;20022;-72
2021/06/10 04:04:59;;;;;;;3.08;0.65;;;;;12.90;100730.00;;;;5029056;28;20045;-69
2021/06/10 04:07:26;;;;;;;2.22;0.80;;;;;12.90;100731.00;;;;5029432;28;20083;-71
2021/06/10 04:09:53;;;;;;;8.48;1.83;;;;;12.80;100745.00;;;;5029498;28;20132;-68
2021/06/10 04:12:20;;;;;;;7.82;1.85;;;;;12.70;100743.00;;;;5029257;28;20033;-70
2021/06/10 04:14:46;;;;;;;6.70;2.08;;;;;12.70;100737.00;;;;5029541;28;20040;-71
2021/06/10 04:17:13;;;;;;;3.65;2.25;;;;;12.80;100747.00;;;;5029131;28;20029;-67
2021/06/10 04:19:40;;;;;;;5.80;2.10;;;;;12.80;100742.00;;;;5028975;28;20034;-70
2021/06/10 04:22:07;;;;;;;4.40;1.70;;;;;12.80;100732.00;;;;5029113;28;20026;-72
2021/06/10 04:24:33;;;;;;;5.18;1.52;;;;;12.80;100724.00;;;;5029031;28;20041;-70
2021/06/10 04:27:01;;;;;;;16.17;1.58;;;;;12.70;100735.00;;;;5029380;28;21145;-70
2021/06/10 04:29:28;;;;;;;5.97;1.40;;;;;12.80;100723.00;;;;5029017;28;20076;-73
2021/06/10 04:31:54;;;;;;;7.45;2.10;;;;;12.60;100709.00;;;;5029360;28;20056;-73
2021/06/10 04:34:21;;;;;;;10.25;2.20;;;;;12.60;100701.00;;;;5029515;28;20087;-72
2021/06/10 04:36:48;;;;;;;13.93;5.75;;;;;12.60;100716.00;;;;5029006;28;20052;-68
2021/06/10 04:39:15;;;;;;;15.43;5.70;;;;;12.70;100712.00;;;;5028726;28;20034;-70
2021/06/10 04:41:41;;;;;;;16.25;9.07;;;;;12.60;100723.00;;;;5027024;28;20037;-74
2021/06/10 04:44:08;;;;;;;25.42;14.73;;;;;12.60;100721.00;;;;5028421;28;20546;-71
2021/06/10 04:46:35;;;;;;;39.63;15.63;;;;;12.60;100717.00;;;;5028502;28;20091;-70
2021/06/10 04:49:03;;;;;;;32.13;14.85;;;;;12.60;100710.00;;;;5028362;28;20036;-70
2021/06/10 04:51:30;;;;;;;34.58;18.83;;;;;12.50;100703.00;;;;5028282;28;20044;-71
2021/06/10 04:53:56;;;;;;;34.85;18.10;;;;;12.50;100708.00;;;;5028084;28;20099;-70
2021/06/10 04:56:24;;;;;;;27.25;15.65;;;;;12.50;100700.00;;;;5028907;28;20056;-67
2021/06/10 04:58:51;;;;;;;26.42;12.85;;;;;12.50;100693.00;;;;5028653;28;20079;-72
2021/06/10 05:01:17;;;;;;;26.40;10.77;;;;;12.50;100693.00;;;;5028587;28;20361;-69
2021/06/10 05:03:44;;;;;;;15.43;6.15;;;;;12.50;100695.00;;;;5028385;28;20532;-73
2021/06/10 05:06:10;;;;;;;13.07;5.53;;;;;12.50;100691.00;;;;5027978;28;20447;-72
2021/06/10 05:08:37;;;;;;;13.40;4.93;;;;;12.50;100696.00;;;;5028063;28;20124;-71
2021/06/10 05:11:03;;;;;;;10.40;3.92;;;;;12.50;100697.00;;;;5027609;28;20050;-67
2021/06/10 05:13:30;;;;;;;7.20;2.72;;;;;12.40;100711.00;;;;5028526;28;20025;-68
2021/06/10 05:15:57;;;;;;;10.38;4.65;;;;;12.50;100718.00;;;;5028012;28;20033;-70
2021/06/10 05:18:23;;;;;;;16.92;5.47;;;;;12.30;100711.00;;;;5027976;28;20104;-68
2021/06/10 05:20:50;;;;;;;12.73;5.15;;;;;12.40;100706.00;;;;5029311;28;20068;-71
2021/06/10 05:26:39;;;;;;;20.05;8.30;;;;;12.40;100703.00;;;;5028247;28;20515;-68
2021/06/10 05:29:06;;;;;;;13.55;6.63;;;;;12.40;100693.00;;;;5027880;28;20076;-67
2021/06/10 05:31:32;;;;;;;9.85;4.72;;;;;12.40;100698.00;;;;5028054;28;20124;-74
2021/06/10 05:33:59;;;;;;;14.55;6.28;;;;;12.40;100710.00;;;;5028298;28;20065;-72
2021/06/10 05:36:26;;;;;;;11.63;5.28;;;;;12.40;100677.00;;;;5027777;28;20082;-72
2021/06/10 05:38:52;;;;;;;5.85;3.15;;;;;12.50;100661.00;;;;5027531;28;20036;-69
2021/06/10 05:41:19;;;;;;;4.80;2.13;;;;;12.40;100675.00;;;;5026245;28;20087;-72
2021/06/10 05:43:45;;;;;;;10.52;2.53;;;;;12.60;100652.00;;;;5027184;28;20021;-70
2021/06/10 05:46:12;;;;;;;7.93;1.60;;;;;12.70;100648.00;;;;5027564;28;20036;-70
2021/06/10 05:48:38;;;;;;;5.10;1.70;;;;;12.70;100646.00;;;;5027674;28;20457;-73
2021/06/10 05:51:05;;;;;;;2.83;1.33;;;;;12.70;100641.00;;;;5026020;28;20029;-70
2021/06/10 05:53:32;;;;;;;3.60;1.40;;;;;12.60;100641.00;;;;5027302;28;20539;-69
2021/06/10 05:55:58;;;;;;;3.25;1.33;;;;;12.50;100638.00;;;;5027673;28;20083;-70
2021/06/10 05:58:25;;;;;;;2.53;0.88;;;;;12.60;100623.00;;;;5027184;28;20953;-73
2021/06/10 06:00:51;;;;;;;3.72;1.40;;;;;12.60;100626.00;;;;5027576;28;20022;-71
2021/06/10 06:03:18;;;;;;;3.08;0.90;;;;;12.60;100621.00;;;;5027742;28;20083;-74
2021/06/10 06:05:44;;;;;;;1.55;0.70;;;;;12.50;100634.00;;;;5026684;28;20025;-74
2021/06/10 06:08:11;;;;;;;3.80;1.02;;;;;12.50;100628.00;;;;5027597;28;20032;-70
2021/06/10 06:10:38;;;;;;;9.32;0.90;;;;;12.50;100634.00;;;;5026820;28;20049;-69
2021/06/10 06:13:04;;;;;;;4.38;0.70;;;;;12.60;100641.00;;;;5026756;28;20045;-73
2021/06/10 06:15:31;;;;;;;3.15;0.80;;;;;12.50;100656.00;;;;5027266;28;20026;-71
2021/06/10 06:17:58;;;;;;;6.50;1.10;;;;;12.40;100661.00;;;;5027061;28;20068;-70
2021/06/10 06:20:25;;;;;;;5.95;1.30;;;;;12.50;100644.00;;;;5027333;28;20116;-68
2021/06/10 06:22:52;;;;;;;8.20;1.30;;;;;12.50;100628.00;;;;5027135;28;20083;-70
2021/06/10 06:25:20;;;;;;;4.53;1.00;;;;;12.50;100618.00;;;;5026686;28;20029;-68
2021/06/10 06:27:47;;;;;;;3.03;1.00;;;;;12.60;100628.00;;;;5026878;28;20069;-71
2021/06/10 06:30:16;;;;;;;5.97;0.93;;;;;12.60;100635.00;;;;5026610;28;20093;-71
2021/06/10 06:32:43;;;;;;;5.43;1.00;;;;;12.50;100638.00;;;;5026552;28;20382;-70
2021/06/10 06:35:10;;;;;;;4.25;1.10;;;;;12.50;100639.00;;;;5026896;28;20449;-71
2021/06/10 06:37:37;;;;;;;9.40;0.95;;;;;12.50;100642.00;;;;5027051;28;20029;-69
2021/06/10 06:40:05;;;;;;;8.82;1.52;;;;;12.60;100654.00;;;;5026688;28;20109;-67
2021/06/10 06:42:32;;;;;;;2.28;1.10;;;;;12.70;100660.00;;;;5027180;28;20053;-72
2021/06/10 06:44:59;;;;;;;9.20;1.40;;;;;12.70;100654.00;;;;5026738;28;20456;-71
2021/06/10 06:47:25;;;;;;;5.70;1.10;;;;;12.90;100651.00;;;;5027079;28;20044;-69
2021/06/10 06:49:52;;;;;;;6.70;1.20;;;;;12.90;100635.00;;;;5026999;28;20437;-72
2021/06/10 06:52:19;;;;;;;2.28;0.85;;;;;13.00;100630.00;;;;5026588;28;20386;-70
2021/06/10 06:54:45;;;;;;;2.50;1.10;;;;;13.00;100617.00;;;;5025945;28;20025;-70
2021/06/10 06:57:12;;;;;;;12.02;1.17;;;;;13.00;100608.00;;;;5026837;28;20025;-70
2021/06/10 06:59:39;;;;;;;5.43;0.98;;;;;13.10;100574.00;;;;5026609;28;20102;-74
2021/06/10 07:02:07;;;;;;;10.63;2.17;;;;;13.10;100567.00;;;;5026444;28;20052;-70
2021/06/10 07:04:33;;;;;;;0.82;0.82;;;;;13.00;100561.00;;;;5027212;28;20456;-69
2021/06/10 07:07:00;;;;;;;5.78;1.10;;;;;13.00;100545.00;;;;5026319;28;20080;-71
2021/06/10 07:09:26;;;;;;;10.20;3.08;;;;;13.00;100543.00;;;;5028961;28;20409;-71
2021/06/10 07:11:53;;;;;;;18.88;6.85;;;;;13.00;100522.00;;;;5030450;28;20072;-71
2021/06/10 07:14:19;;;;;;;15.88;5.18;;;;;13.10;100514.00;;;;5030441;28;20404;-73
2021/06/10 07:16:46;;;;;;;5.82;2.22;;;;;13.10;100514.00;;;;5029980;28;20517;-71
2021/06/10 07:19:12;;;;;;;19.25;6.80;;;;;13.10;100528.00;;;;5030437;28;20029;-74
2021/06/10 07:21:47;;;;;;;11.27;4.07;;;;;13.10;100545.00;;;;5030311;28;20400;-70
2021/06/10 07:24:14;;;;;;;9.80;2.08;;;;;13.00;100534.00;;;;5030140;28;20033;-72
2021/06/10 07:26:42;;;;;;;8.63;1.73;;;;;12.80;100542.00;;;;5030008;28;20071;-72
2021/06/10 07:29:09;;;;;;;6.90;1.40;;;;;12.70;100544.00;;;;5030485;28;20037;-72
2021/06/10 07:31:36;;;;;;;5.63;1.30;;;;;12.70;100553.00;;;;5030530;28;20038;-69
2021/06/10 07:34:05;;;;;;;3.58;1.17;;;;;12.70;100577.00;;;;5030010;28;20762;-71
2021/06/10 07:36:32;;;;;;;8.32;1.42;;;;;12.70;100580.00;;;;5030247;28;20507;-69
2021/06/10 07:38:59;;;;;;;2.30;1.02;;;;;12.70;100577.00;;;;5030214;28;20136;-70
2021/06/10 07:41:26;;;;;;;7.45;1.55;;;;;12.80;100583.00;;;;5029757;28;20025;-73
2021/06/10 07:43:53;;;;;;;2.72;1.50;;;;;12.80;100598.00;;;;5029730;28;20052;-71
2021/06/10 07:46:20;;;;;;;4.32;1.42;;;;;12.80;100582.00;;;;5029966;28;20499;-72
2021/06/10 07:48:47;;;;;;;14.95;1.90;;;;;12.80;100573.00;;;;5029703;28;20073;-69
2021/06/10 07:51:15;;;;;;;3.72;1.40;;;;;12.90;100583.00;;;;5030648;28;20128;-73
2021/06/10 07:53:42;;;;;;;4.72;1.45;;;;;12.90;100581.00;;;;5029782;28;20101;-70
2021/06/10 07:56:08;;;;;;;6.70;1.58;;;;;12.90;100567.00;;;;5029683;28;20038;-73
2021/06/10 07:58:36;;;;;;;6.15;1.63;;;;;13.00;100590.00;;;;5029526;28;20033;-70
2021/06/10 08:01:04;;;;;;;5.30;1.38;;;;;13.00;100579.00;;;;5027900;28;20033;-71
2021/06/10 08:03:30;;;;;;;3.60;1.50;;;;;13.00;100589.00;;;;5029026;28;20492;-73
2021/06/10 08:05:59;;;;;;;5.43;2.00;;;;;13.00;100598.00;;;;5029446;28;20492;-72
2021/06/10 08:08:25;;;;;;;4.63;1.63;;;;;13.10;100602.00;;;;5030132;28;20037;-73
2021/06/10 08:10:53;;;;;;;5.80;1.60;;;;;13.10;100601.00;;;;5029437;28;20713;-72
2021/06/10 08:13:24;;;;;;;10.73;1.98;;;;;13.20;100606.00;;;;5029977;28;20080;-74
2021/06/10 08:15:51;;;;;;;5.38;1.77;;;;;13.20;100636.00;;;;5029310;28;20079;-70
2021/06/10 08:18:18;;;;;;;4.18;1.30;;;;;13.20;100676.00;;;;5029738;28;20087;-68
2021/06/10 08:20:46;;;;;;;5.70;2.38;;;;;13.30;100673.00;;;;5027647;28;20034;-70
2021/06/10 08:23:13;;;;;;;5.10;2.53;;;;;13.40;100667.00;;;;5029492;28;20128;-73
2021/06/10 08:25:43;;;;;;;4.53;2.47;;;;;13.40;100649.00;;;;5029056;28;20079;-71
2021/06/10 08:28:12;;;;;;;5.68;2.72;;;;;13.50;100671.00;;;;5029016;28;20464;-72
2021/06/10 08:30:39;;;;;;;4.78;2.63;;;;;13.40;100652.00;;;;5028720;28;20891;-74
2021/06/10 08:33:06;;;;;;;4.07;2.33;;;;;13.50;100645.00;;;;5029315;28;20061;-73
2021/06/10 08:35:34;;;;;;;10.75;4.05;;;;;13.50;100644.00;;;;5029127;28;20036;-70
2021/06/10 08:38:05;;;;;;;8.40;4.57;;;;;13.60;100660.00;;;;5028991;28;20417;-76
2021/06/10 08:40:33;;;;;;;4.13;2.92;;;;;13.50;100677.00;;;;5028619;28;20473;-68
2021/06/10 08:43:01;;;;;;;5.97;3.67;;;;;13.50;100663.00;;;;5028454;28;20072;-68
2021/06/10 08:45:31;;;;;;;11.77;1.98;;;;;13.20;100663.00;;;;5029348;28;20120;-70
2021/06/10 08:47:59;;;;;;;7.10;2.33;;;;;13.10;100669.00;;;;5028695;28;20025;-73
2021/06/10 08:50:27;;;;;;;5.35;1.77;;;;;13.10;100664.00;;;;5028703;28;20056;-72
2021/06/10 08:52:59;;;;;;;4.88;1.73;;;;;13.00;100658.00;;;;5028575;28;20037;-70
2021/06/10 08:55:27;;;;;;;7.28;1.70;;;;;13.00;100668.00;;;;5028668;28;20033;-68
2021/06/10 08:57:54;;;;;;;10.18;1.95;;;;;13.00;100681.00;;;;5028498;28;20034;-72
2021/06/10 09:00:23;;;;;;;5.65;1.48;;;;;13.00;100687.00;;;;5028823;28;20029;-68
2021/06/10 09:02:54;;;;;;;8.75;1.80;;;;;13.10;100686.00;;;;5028928;28;20040;-73
2021/06/10 09:05:23;;;;;;;27.75;3.10;;;;;13.10;100689.00;;;;5028571;28;20116;-68
2021/06/10 09:07:59;;;;;;;9.07;1.90;;;;;13.20;100681.00;;;;5026743;28;20060;-71
2021/06/10 09:10:27;;;;;;;7.82;2.05;;;;;13.20;100688.00;;;;5028249;28;20037;-70
2021/06/10 09:12:59;;;;;;;4.63;1.92;;;;;13.20;100683.00;;;;5028216;28;20547;-71
2021/06/10 09:15:29;;;;;;;15.63;2.85;;;;;13.30;100693.00;;;;5028379;28;20116;-72
2021/06/10 09:18:00;;;;;;;9.05;2.35;;;;;13.40;100677.00;;;;5027846;28;20048;-70
2021/06/10 09:20:48;;;;;;;7.50;2.00;;;;;13.50;100686.00;;;;5028122;28;20095;-69
2021/06/10 09:23:24;;;;;;;4.72;1.70;;;;;13.50;100674.00;;;;5027696;28;20068;-69
2021/06/10 09:26:05;;;;;;;13.73;2.40;;;;;13.70;100692.00;;;;5028125;28;20600;-74
2021/06/10 09:28:39;;;;;;;3.38;2.10;;;;;13.80;100708.00;;;;5027477;28;20040;-71
2021/06/10 09:31:06;;;;;;;4.82;2.10;;;;;13.80;100710.00;;;;5027329;28;20029;-69
2021/06/10 09:33:41;;;;;;;4.65;1.80;;;;;13.90;100721.00;;;;5027916;28;20029;-70
2021/06/10 09:36:13;;;;;;;6.90;2.20;;;;;14.00;100720.00;;;;5028335;28;20440;-73
2021/06/10 09:38:40;;;;;;;4.13;1.90;;;;;14.00;100732.00;;;;5026289;28;20087;-71
2021/06/10 09:41:07;;;;;;;7.40;2.20;;;;;14.10;100711.00;;;;5027410;28;20025;-70
2021/06/10 09:43:47;;;;;;;2.05;1.40;;;;;14.10;100724.00;;;;5026942;28;20084;-71
2021/06/10 09:46:14;;;;;;;3.65;1.58;;;;;14.10;100729.00;;;;5027621;28;20033;-73
2021/06/10 09:48:42;;;;;;;4.50;1.55;;;;;14.10;100740.00;;;;5027260;28;20120;-69
2021/06/10 09:51:21;;;;;;;13.82;3.00;;;;;14.10;100746.00;;;;5027038;28;20488;-70
2021/06/10 09:53:48;;;;;;;14.93;2.22;;;;;14.10;100754.00;;;;5026239;28;20017;-73
2021/06/10 09:56:15;;;;;;;6.55;3.08;;;;;14.00;100756.00;;;;5025983;28;20053;-72
2021/06/10 09:58:43;;;;;;;11.45;3.38;;;;;13.90;100765.00;;;;5025964;28;20481;-71
2021/06/10 10:01:19;;;;;;;7.32;3.28;;;;;13.80;100773.00;;;;5027052;28;20112;-72
2021/06/10 10:03:48;;;;;;;8.13;2.97;;;;;13.90;100774.00;;;;5026480;28;20034;-69
2021/06/10 10:06:26;;;;;;;5.97;2.90;;;;;13.90;100770.00;;;;5025955;28;20036;-74
2021/06/10 10:08:59;;;;;;;19.92;3.50;;;;;13.90;100774.00;;;;5025692;28;20046;-73
2021/06/10 10:11:26;;;;;;;17.73;4.28;;;;;13.90;100784.00;;;;5027065;28;20045;-71
2021/06/10 10:13:55;;;;;;;9.65;2.92;;;;;13.90;100784.00;;;;5027183;28;20061;-69
2021/06/10 10:16:24;;;;;;;5.78;2.78;;;;;13.80;100792.00;;;;5027291;28;20048;-73
2021/06/10 10:18:53;;;;;;;6.95;3.00;;;;;13.80;100796.00;;;;5026406;28;20037;-73
2021/06/10 10:21:28;;;;;;;10.60;2.72;;;;;13.80;100793.00;;;;5026589;28;20049;-73
2021/06/10 10:24:02;;;;;;;4.32;2.72;;;;;13.80;100781.00;;;;5027132;28;20025;-71
2021/06/10 10:26:30;;;;;;;7.07;3.20;;;;;13.90;100794.00;;;;5026859;28;20025;-68
2021/06/10 10:28:58;;;;;;;13.15;3.80;;;;;13.90;100803.00;;;;5026316;28;20042;-69
2021/06/10 10:31:28;;;;;;;7.50;2.95;;;;;13.80;100826.00;;;;5026375;28;20047;-73
2021/06/10 10:33:55;;;;;;;3.67;2.50;;;;;13.80;100821.00;;;;5026852;28;20088;-71
2021/06/10 10:36:45;;;;;;;18.25;4.18;;;;;13.80;100847.00;;;;5026610;28;20029;-69
2021/06/10 10:39:12;;;;;;;8.38;3.00;;;;;13.70;100837.00;;;;5025878;28;20040;-72
2021/06/10 10:41:53;;;;;;;12.98;3.40;;;;;13.80;100852.00;;;;5027090;28;20025;-73
2021/06/10 10:44:29;;;;;;;7.17;2.60;;;;;13.80;100867.00;;;;5025482;28;20448;-71
2021/06/10 10:47:10;;;;;;;26.55;12.27;;;;;13.90;100867.00;;;;5026992;28;20274;-69
2021/06/10 10:49:43;;;;;;;51.83;21.05;;;;;13.90;100879.00;;;;5026190;28;20040;-72
2021/06/10 10:52:16;;;;;;;27.85;17.88;;;;;13.80;100887.00;;;;5026160;28;20057;-72
2021/06/10 10:54:45;;;;;;;27.25;18.25;;;;;13.70;100888.00;;;;5027013;28;20026;-73
2021/06/10 10:57:39;;;;;;;19.55;14.80;;;;;13.70;100910.00;;;;5026730;28;20033;-73
2021/06/10 11:00:09;;;;;;;22.17;11.38;;;;;13.70;100900.00;;;;5026619;28;20037;-69
2021/06/10 11:02:41;;;;;;;15.85;10.07;;;;;13.60;100899.00;;;;5026346;28;20025;-72
2021/06/10 11:05:11;;;;;;;14.82;10.65;;;;;13.60;100908.00;;;;5026912;28;20033;-73
2021/06/10 11:07:39;;;;;;;21.95;13.55;;;;;13.60;100911.00;;;;5026416;28;20029;-68
2021/06/10 11:10:33;;;;;;;25.92;13.45;;;;;13.60;100917.00;;;;5026247;28;20053;-73
2021/06/10 11:13:00;;;;;;;24.05;16.83;;;;;13.70;100917.00;;;;5026066;28;20120;-71
2021/06/10 11:15:29;;;;;;;25.95;16.38;;;;;13.70;100919.00;;;;5026856;28;20033;-68
2021/06/10 11:18:07;;;;;;;26.02;15.95;;;;;13.70;100915.00;;;;5026495;28;20108;-72
2021/06/10 11:20:36;;;;;;;37.70;17.42;;;;;13.70;100924.00;;;;5026134;28;20056;-71
2021/06/10 11:23:25;;;;;;;25.10;16.45;;;;;13.70;100904.00;;;;5026165;28;20108;-70
2021/06/10 11:25:53;;;;;;;27.05;17.73;;;;;13.70;100912.00;;;;5026687;28;20128;-71
2021/06/10 11:28:25;;;;;;;19.98;15.57;;;;;13.70;100928.00;;;;5026211;28;20030;-72
2021/06/10 11:30:54;;;;;;;25.80;15.55;;;;;13.70;100908.00;;;;5025924;28;20523;-67
2021/06/10 11:33:24;;;;;;;27.88;17.40;;;;;13.70;100919.00;;;;5026436;28;20754;-69
2021/06/10 11:35:57;;;;;;;26.52;16.67;;;;;13.70;100930.00;;;;5026299;28;20029;-69
2021/06/10 11:38:31;;;;;;;35.80;18.83;;;;;13.80;100909.00;;;;5026545;28;20045;-69
2021/06/10 11:41:05;;;;;;;39.55;18.45;;;;;13.80;100918.00;;;;5026771;28;20926;-70
2021/06/10 11:43:34;;;;;;;29.08;15.98;;;;;13.70;100918.00;;;;5025836;28;20091;-70
2021/06/10 11:46:06;;;;;;;31.95;16.30;;;;;13.70;100904.00;;;;5026082;28;20400;-72
2021/06/10 11:48:36;;;;;;;32.10;17.67;;;;;13.70;100911.00;;;;5025985;28;20036;-71
2021/06/10 11:51:03;;;;;;;31.77;17.67;;;;;13.70;100895.00;;;;5026014;28;20029;-69
2021/06/10 11:53:31;;;;;;;24.85;14.90;;;;;13.70;100907.00;;;;5025193;28;20053;-72
2021/06/10 11:55:58;;;;;;;25.60;15.60;;;;;13.70;100908.00;;;;5029922;28;20092;-71
2021/06/10 11:58:31;;;;;;;32.53;16.90;;;;;13.70;100904.00;;;;5029379;28;20036;-70
2021/06/10 12:01:05;;;;;;;33.63;18.25;;;;;13.70;100897.00;;;;5029383;28;20037;-70
2021/06/10 12:03:35;;;;;;;26.63;19.10;;;;;13.70;100890.00;;;;5030350;28;20041;-68
2021/06/10 12:06:02;;;;;;;30.60;18.40;;;;;13.80;100893.00;;;;5029649;28;20037;-71
2021/06/10 12:08:32;;;;;;;26.55;16.80;;;;;13.80;100890.00;;;;5029446;28;20128;-71
2021/06/10 12:11:05;;;;;;;39.47;19.88;;;;;13.90;100879.00;;;;5029083;28;20124;-70
2021/06/10 12:13:40;;;;;;;24.63;14.50;;;;;13.90;100881.00;;;;5028951;28;20112;-68
2021/06/10 12:16:12;;;;;;;16.73;11.80;;;;;13.90;100877.00;;;;5029403;28;20131;-69